UAL417 KLAX-PHOG
Flight info
| Callsign | UAL417 |
|---|---|
| Flight time | 5h 1m |
| Altitude | 36000 |
| Route | SUMMR2 DINTY DUETS R576 DUSAC/N0462F380 R576 DENNS LNDHY1 |
| Aircraft | B38M/M-SDE1FGHILORVWXY/HB1 |
Departure
| Time | 2026-05-07 13:51 |
|---|---|
| Airport | Los Angeles International Airport (KLAX) |
Arrival
| Time | 2026-05-07 18:52 |
|---|---|
| Airport | Kahului International Airport (PHOG) |
| Time | Latitude | Longitude | Altitude | Speed | Heading |
|---|---|---|---|---|---|
| 2026-05-07 13:22 | 33.94159 | -118.40030 | 128 ft | 0 kts | 96° |
| 2026-05-07 13:42 | 33.94160 | -118.40048 | 124 ft | 4 kts | 100° |
| 2026-05-07 13:42 | 33.94168 | -118.40078 | 128 ft | 4 kts | 123° |
| 2026-05-07 13:42 | 33.94185 | -118.40093 | 127 ft | 2 kts | 173° |
| 2026-05-07 13:43 | 33.94186 | -118.40093 | 126 ft | 2 kts | 173° |
| 2026-05-07 13:45 | 33.94184 | -118.40093 | 127 ft | 1 kts | 173° |
| 2026-05-07 13:46 | 33.94171 | -118.40091 | 123 ft | 7 kts | 170° |
| 2026-05-07 13:46 | 33.94098 | -118.40077 | 126 ft | 13 kts | 172° |
| 2026-05-07 13:46 | 33.94006 | -118.40061 | 125 ft | 12 kts | 171° |
| 2026-05-07 13:46 | 33.93960 | -118.40000 | 126 ft | 11 kts | 85° |
| 2026-05-07 13:47 | 33.93971 | -118.39900 | 126 ft | 13 kts | 82° |
| 2026-05-07 13:47 | 33.93985 | -118.39774 | 125 ft | 18 kts | 83° |
| 2026-05-07 13:47 | 33.94000 | -118.39619 | 128 ft | 19 kts | 84° |
| 2026-05-07 13:47 | 33.94015 | -118.39452 | 126 ft | 21 kts | 81° |
| 2026-05-07 13:48 | 33.94037 | -118.39276 | 128 ft | 22 kts | 84° |
| 2026-05-07 13:48 | 33.94055 | -118.39093 | 125 ft | 21 kts | 84° |
| 2026-05-07 13:48 | 33.93995 | -118.38981 | 126 ft | 17 kts | 118° |
| 2026-05-07 13:48 | 33.93998 | -118.38839 | 124 ft | 18 kts | 82° |
| 2026-05-07 13:49 | 33.94013 | -118.38686 | 124 ft | 19 kts | 83° |
| 2026-05-07 13:49 | 33.94030 | -118.38522 | 128 ft | 20 kts | 83° |
| 2026-05-07 13:49 | 33.94047 | -118.38348 | 128 ft | 21 kts | 83° |
| 2026-05-07 13:49 | 33.94065 | -118.38181 | 128 ft | 16 kts | 85° |
| 2026-05-07 13:50 | 33.94077 | -118.38053 | 128 ft | 13 kts | 88° |
| 2026-05-07 13:50 | 33.94030 | -118.37993 | 128 ft | 11 kts | 169° |
| 2026-05-07 13:50 | 33.93981 | -118.38034 | 126 ft | 11 kts | 266° |
| 2026-05-07 13:50 | 33.93953 | -118.38322 | 126 ft | 70 kts | 263° |
| 2026-05-07 13:51 | 33.93863 | -118.39191 | 128 ft | 136 kts | 263° |
| 2026-05-07 13:51 | 33.93726 | -118.40524 | 253 ft | 176 kts | 263° |
| 2026-05-07 13:51 | 33.93544 | -118.42009 | 927 ft | 183 kts | 262° |
| 2026-05-07 13:51 | 33.93375 | -118.43563 | 1594 ft | 196 kts | 264° |
| 2026-05-07 13:52 | 33.93226 | -118.45275 | 2167 ft | 218 kts | 264° |
| 2026-05-07 13:52 | 33.93063 | -118.47210 | 2702 ft | 238 kts | 264° |
| 2026-05-07 13:52 | 33.92898 | -118.49255 | 3512 ft | 250 kts | 265° |
| 2026-05-07 13:52 | 33.92721 | -118.51385 | 4362 ft | 260 kts | 265° |
| 2026-05-07 13:53 | 33.92532 | -118.53601 | 5204 ft | 268 kts | 265° |
| 2026-05-07 13:53 | 33.92347 | -118.55878 | 6026 ft | 278 kts | 265° |
| 2026-05-07 13:53 | 33.92156 | -118.58213 | 6910 ft | 282 kts | 264° |
| 2026-05-07 13:53 | 33.91961 | -118.60589 | 7736 ft | 289 kts | 264° |
| 2026-05-07 13:54 | 33.91785 | -118.63015 | 8574 ft | 294 kts | 269° |
| 2026-05-07 13:54 | 33.91788 | -118.65497 | 9402 ft | 299 kts | 271° |
| 2026-05-07 13:54 | 33.91789 | -118.68022 | 10196 ft | 306 kts | 270° |
| 2026-05-07 13:54 | 33.91782 | -118.70646 | 10663 ft | 323 kts | 270° |
| 2026-05-07 13:55 | 33.91766 | -118.73433 | 11019 ft | 343 kts | 270° |
| 2026-05-07 13:55 | 33.91746 | -118.76392 | 11331 ft | 363 kts | 270° |
| 2026-05-07 13:55 | 33.91722 | -118.79510 | 11609 ft | 381 kts | 270° |
| 2026-05-07 13:55 | 33.91707 | -118.82769 | 11889 ft | 394 kts | 272° |
| 2026-05-07 13:56 | 33.91807 | -118.86067 | 12579 ft | 395 kts | 273° |
| 2026-05-07 13:56 | 33.91903 | -118.89395 | 13234 ft | 399 kts | 273° |
| 2026-05-07 13:56 | 33.91995 | -118.92744 | 13895 ft | 402 kts | 273° |
| 2026-05-07 13:56 | 33.92085 | -118.96130 | 14476 ft | 406 kts | 273° |
| 2026-05-07 13:57 | 33.92243 | -118.99526 | 15076 ft | 406 kts | 281° |
| 2026-05-07 13:57 | 33.93062 | -119.02746 | 15636 ft | 405 kts | 298° |
| 2026-05-07 13:57 | 33.94445 | -119.05705 | 16151 ft | 408 kts | 302° |
| 2026-05-07 13:57 | 33.95887 | -119.08614 | 16684 ft | 411 kts | 303° |
| 2026-05-07 13:58 | 33.97377 | -119.11567 | 17221 ft | 414 kts | 304° |
| 2026-05-07 13:58 | 33.98885 | -119.14519 | 17740 ft | 417 kts | 304° |
| 2026-05-07 13:58 | 34.00482 | -119.17441 | 18231 ft | 417 kts | 312° |
| 2026-05-07 13:58 | 34.02603 | -119.19804 | 18683 ft | 415 kts | 325° |
| 2026-05-07 13:59 | 34.04928 | -119.21904 | 19082 ft | 419 kts | 326° |
| 2026-05-07 13:59 | 34.07280 | -119.23983 | 19532 ft | 420 kts | 326° |
| 2026-05-07 13:59 | 34.09645 | -119.26048 | 19954 ft | 423 kts | 326° |
| 2026-05-07 13:59 | 34.12043 | -119.28124 | 20395 ft | 425 kts | 326° |
| 2026-05-07 14:00 | 34.14462 | -119.30209 | 20820 ft | 428 kts | 326° |
| 2026-05-07 14:00 | 34.16889 | -119.32302 | 21246 ft | 430 kts | 326° |
| 2026-05-07 14:00 | 34.19337 | -119.34413 | 21665 ft | 433 kts | 326° |
| 2026-05-07 14:00 | 34.21790 | -119.36529 | 22090 ft | 435 kts | 326° |
| 2026-05-07 14:01 | 34.24265 | -119.38666 | 22498 ft | 438 kts | 326° |
| 2026-05-07 14:01 | 34.26752 | -119.40815 | 22897 ft | 441 kts | 326° |
| 2026-05-07 14:01 | 34.29238 | -119.42964 | 23292 ft | 443 kts | 326° |
| 2026-05-07 14:01 | 34.31753 | -119.45140 | 23675 ft | 446 kts | 326° |
| 2026-05-07 14:02 | 34.34288 | -119.47335 | 24006 ft | 448 kts | 326° |
| 2026-05-07 14:02 | 34.36742 | -119.49669 | 24346 ft | 451 kts | 316° |
| 2026-05-07 14:02 | 34.38659 | -119.52627 | 24708 ft | 456 kts | 302° |
| 2026-05-07 14:02 | 34.39912 | -119.56165 | 25053 ft | 461 kts | 287° |
| 2026-05-07 14:03 | 34.40388 | -119.60014 | 25411 ft | 466 kts | 273° |
| 2026-05-07 14:03 | 34.40258 | -119.63956 | 25732 ft | 470 kts | 269° |
| 2026-05-07 14:03 | 34.40044 | -119.67923 | 26029 ft | 473 kts | 268° |
| 2026-05-07 14:03 | 34.39799 | -119.71882 | 26362 ft | 475 kts | 268° |
| 2026-05-07 14:04 | 34.39532 | -119.75871 | 26660 ft | 477 kts | 267° |
| 2026-05-07 14:04 | 34.39252 | -119.79884 | 26969 ft | 479 kts | 267° |
| 2026-05-07 14:04 | 34.38967 | -119.83907 | 27259 ft | 481 kts | 267° |
| 2026-05-07 14:04 | 34.38678 | -119.87958 | 27590 ft | 483 kts | 267° |
| 2026-05-07 14:05 | 34.38389 | -119.92001 | 27994 ft | 482 kts | 267° |
| 2026-05-07 14:05 | 34.38098 | -119.96041 | 28429 ft | 481 kts | 267° |
| 2026-05-07 14:05 | 34.37807 | -120.00061 | 28846 ft | 481 kts | 267° |
| 2026-05-07 14:05 | 34.37515 | -120.04082 | 29277 ft | 480 kts | 267° |
| 2026-05-07 14:06 | 34.37221 | -120.08106 | 29731 ft | 479 kts | 267° |
| 2026-05-07 14:06 | 34.36927 | -120.12117 | 30156 ft | 478 kts | 267° |
| 2026-05-07 14:06 | 34.36632 | -120.16120 | 30516 ft | 477 kts | 267° |
| 2026-05-07 14:06 | 34.36336 | -120.20121 | 30896 ft | 476 kts | 267° |
| 2026-05-07 14:07 | 34.36040 | -120.24099 | 31278 ft | 474 kts | 267° |
| 2026-05-07 14:07 | 34.35744 | -120.28072 | 31666 ft | 473 kts | 268° |
| 2026-05-07 14:07 | 34.35448 | -120.32008 | 32052 ft | 471 kts | 268° |
| 2026-05-07 14:07 | 34.35152 | -120.35941 | 32447 ft | 469 kts | 268° |
| 2026-05-07 14:08 | 34.34855 | -120.39874 | 32821 ft | 468 kts | 268° |
| 2026-05-07 14:08 | 34.34553 | -120.43795 | 33176 ft | 467 kts | 266° |
| 2026-05-07 14:08 | 34.33791 | -120.47619 | 33542 ft | 471 kts | 250° |
| 2026-05-07 14:08 | 34.32435 | -120.51232 | 33873 ft | 472 kts | 249° |
| 2026-05-07 14:09 | 34.31063 | -120.54839 | 34150 ft | 472 kts | 248° |
| 2026-05-07 14:09 | 34.29673 | -120.58423 | 34422 ft | 472 kts | 248° |
| 2026-05-07 14:09 | 34.28267 | -120.62000 | 34705 ft | 471 kts | 248° |
| 2026-05-07 14:09 | 34.26877 | -120.65518 | 34989 ft | 470 kts | 248° |
| 2026-05-07 14:10 | 34.25468 | -120.69078 | 35264 ft | 469 kts | 248° |
| 2026-05-07 14:10 | 34.24059 | -120.72631 | 35533 ft | 468 kts | 248° |
| 2026-05-07 14:10 | 34.22655 | -120.76166 | 35800 ft | 466 kts | 248° |
| 2026-05-07 14:10 | 34.21250 | -120.79703 | 36036 ft | 466 kts | 248° |
| 2026-05-07 14:11 | 34.19849 | -120.83223 | 36131 ft | 466 kts | 248° |
| 2026-05-07 14:11 | 34.17058 | -120.90229 | 36111 ft | 462 kts | 248° |
| 2026-05-07 14:12 | 34.14272 | -120.97205 | 36098 ft | 463 kts | 247° |
| 2026-05-07 14:12 | 34.11471 | -121.04208 | 36111 ft | 463 kts | 247° |
| 2026-05-07 14:13 | 34.08664 | -121.11208 | 36115 ft | 463 kts | 247° |
| 2026-05-07 14:13 | 34.05860 | -121.18187 | 36113 ft | 463 kts | 247° |
| 2026-05-07 14:14 | 34.03047 | -121.25174 | 36105 ft | 463 kts | 247° |
| 2026-05-07 14:14 | 34.00229 | -121.32159 | 36122 ft | 464 kts | 247° |
| 2026-05-07 14:15 | 33.97405 | -121.39146 | 36126 ft | 464 kts | 247° |
| 2026-05-07 14:15 | 33.94598 | -121.46076 | 36129 ft | 464 kts | 247° |
| 2026-05-07 14:16 | 33.91750 | -121.53090 | 36124 ft | 464 kts | 246° |
| 2026-05-07 14:16 | 33.88913 | -121.60067 | 36132 ft | 464 kts | 246° |
| 2026-05-07 14:17 | 33.86078 | -121.67020 | 36135 ft | 464 kts | 246° |
| 2026-05-07 14:17 | 33.83252 | -121.73939 | 36136 ft | 464 kts | 246° |
| 2026-05-07 14:18 | 33.80401 | -121.80905 | 36132 ft | 464 kts | 246° |
| 2026-05-07 14:18 | 33.77551 | -121.87855 | 36145 ft | 464 kts | 246° |
| 2026-05-07 14:19 | 33.74698 | -121.94797 | 36142 ft | 464 kts | 246° |
| 2026-05-07 14:19 | 33.71839 | -122.01740 | 36145 ft | 464 kts | 246° |
| 2026-05-07 14:20 | 33.68973 | -122.08687 | 36144 ft | 464 kts | 245° |
| 2026-05-07 14:20 | 33.66104 | -122.15625 | 36143 ft | 464 kts | 245° |
| 2026-05-07 14:21 | 33.63230 | -122.22563 | 36157 ft | 466 kts | 246° |
| 2026-05-07 14:21 | 33.60345 | -122.29511 | 36158 ft | 465 kts | 245° |
| 2026-05-07 14:22 | 33.57451 | -122.36469 | 36154 ft | 465 kts | 245° |
| 2026-05-07 14:22 | 33.54579 | -122.43364 | 36162 ft | 465 kts | 245° |
| 2026-05-07 14:23 | 33.51697 | -122.50269 | 36164 ft | 465 kts | 245° |
| 2026-05-07 14:23 | 33.48808 | -122.57211 | 36166 ft | 464 kts | 248° |
| 2026-05-07 14:23 | 33.47848 | -122.60868 | 36164 ft | 458 kts | 261° |
| 2026-05-07 14:24 | 33.47109 | -122.64581 | 36150 ft | 461 kts | 257° |
| 2026-05-07 14:24 | 33.45504 | -122.72021 | 36172 ft | 461 kts | 258° |
| 2026-05-07 14:25 | 33.43958 | -122.79453 | 36173 ft | 461 kts | 258° |
| 2026-05-07 14:25 | 33.42677 | -122.85642 | 36176 ft | 461 kts | 258° |
| 2026-05-07 14:26 | 33.41131 | -122.93083 | 36175 ft | 460 kts | 258° |
| 2026-05-07 14:26 | 33.39580 | -123.00529 | 36178 ft | 460 kts | 258° |
| 2026-05-07 14:27 | 33.38031 | -123.07940 | 36183 ft | 460 kts | 257° |
| 2026-05-07 14:27 | 33.36473 | -123.15367 | 36184 ft | 460 kts | 258° |
| 2026-05-07 14:28 | 33.34910 | -123.22800 | 36188 ft | 459 kts | 257° |
| 2026-05-07 14:28 | 33.33349 | -123.30194 | 36184 ft | 458 kts | 257° |
| 2026-05-07 14:29 | 33.31789 | -123.37562 | 36190 ft | 458 kts | 257° |
| 2026-05-07 14:29 | 33.30222 | -123.44945 | 36191 ft | 458 kts | 257° |
| 2026-05-07 14:30 | 33.28649 | -123.52331 | 36193 ft | 458 kts | 257° |
| 2026-05-07 14:30 | 33.27072 | -123.59709 | 36196 ft | 458 kts | 257° |
| 2026-05-07 14:31 | 33.25503 | -123.67022 | 36197 ft | 458 kts | 257° |
| 2026-05-07 14:31 | 33.23919 | -123.74390 | 36193 ft | 458 kts | 257° |
| 2026-05-07 14:32 | 33.22331 | -123.81756 | 36198 ft | 458 kts | 256° |
| 2026-05-07 14:32 | 33.20738 | -123.89120 | 36199 ft | 458 kts | 257° |
| 2026-05-07 14:33 | 33.19141 | -123.96478 | 36205 ft | 458 kts | 256° |
| 2026-05-07 14:33 | 33.17540 | -124.03829 | 36213 ft | 457 kts | 257° |
| 2026-05-07 14:34 | 33.15938 | -124.11167 | 36211 ft | 457 kts | 256° |
| 2026-05-07 14:34 | 33.14337 | -124.18471 | 36204 ft | 457 kts | 256° |
| 2026-05-07 14:35 | 33.12729 | -124.25794 | 36207 ft | 457 kts | 256° |
| 2026-05-07 14:35 | 33.11111 | -124.33139 | 36212 ft | 457 kts | 256° |
| 2026-05-07 14:36 | 33.09494 | -124.40462 | 36214 ft | 457 kts | 256° |
| 2026-05-07 14:36 | 33.07869 | -124.47798 | 36220 ft | 457 kts | 256° |
| 2026-05-07 14:37 | 33.06239 | -124.55101 | 36217 ft | 457 kts | 256° |
| 2026-05-07 14:37 | 33.03784 | -124.66078 | 36215 ft | 457 kts | 256° |
| 2026-05-07 14:38 | 33.02151 | -124.73346 | 36223 ft | 457 kts | 256° |
| 2026-05-07 14:38 | 33.00501 | -124.80675 | 36220 ft | 456 kts | 255° |
| 2026-05-07 14:39 | 32.98865 | -124.87918 | 36222 ft | 455 kts | 256° |
| 2026-05-07 14:39 | 32.97215 | -124.95207 | 36234 ft | 456 kts | 255° |
| 2026-05-07 14:40 | 32.95558 | -125.02495 | 36228 ft | 455 kts | 256° |
| 2026-05-07 14:40 | 32.93908 | -125.09740 | 36222 ft | 455 kts | 255° |
| 2026-05-07 14:41 | 32.92246 | -125.17008 | 36233 ft | 455 kts | 255° |
| 2026-05-07 14:41 | 32.90584 | -125.24265 | 36225 ft | 455 kts | 255° |
| 2026-05-07 14:42 | 32.88913 | -125.31531 | 36233 ft | 454 kts | 255° |
| 2026-05-07 14:42 | 32.87248 | -125.38758 | 36243 ft | 454 kts | 255° |
| 2026-05-07 14:43 | 32.85582 | -125.45964 | 36247 ft | 454 kts | 255° |
| 2026-05-07 14:43 | 32.83903 | -125.53204 | 36235 ft | 454 kts | 255° |
| 2026-05-07 14:44 | 32.82222 | -125.60433 | 36238 ft | 453 kts | 255° |
| 2026-05-07 14:44 | 32.80543 | -125.67636 | 36245 ft | 453 kts | 255° |
| 2026-05-07 14:45 | 32.78856 | -125.74855 | 36248 ft | 453 kts | 255° |
| 2026-05-07 14:45 | 32.77161 | -125.82083 | 36248 ft | 453 kts | 255° |
| 2026-05-07 14:46 | 32.75465 | -125.89292 | 36250 ft | 453 kts | 255° |
| 2026-05-07 14:46 | 32.73767 | -125.96493 | 36243 ft | 453 kts | 255° |
| 2026-05-07 14:47 | 32.72077 | -126.03643 | 36251 ft | 452 kts | 255° |
| 2026-05-07 14:47 | 32.70370 | -126.10840 | 36250 ft | 453 kts | 255° |
| 2026-05-07 14:48 | 32.68659 | -126.18037 | 36250 ft | 453 kts | 255° |
| 2026-05-07 14:48 | 32.66947 | -126.25216 | 36253 ft | 453 kts | 255° |
| 2026-05-07 14:49 | 32.65227 | -126.32411 | 36249 ft | 453 kts | 255° |
| 2026-05-07 14:49 | 32.63502 | -126.39599 | 36250 ft | 453 kts | 255° |
| 2026-05-07 14:50 | 32.61773 | -126.46795 | 36255 ft | 453 kts | 255° |
| 2026-05-07 14:50 | 32.60058 | -126.53910 | 36254 ft | 453 kts | 255° |
| 2026-05-07 14:51 | 32.58318 | -126.61109 | 36255 ft | 454 kts | 255° |
| 2026-05-07 14:51 | 32.56572 | -126.68307 | 36258 ft | 454 kts | 255° |
| 2026-05-07 14:52 | 32.54824 | -126.75499 | 36259 ft | 454 kts | 255° |
| 2026-05-07 14:52 | 32.53073 | -126.82682 | 36261 ft | 455 kts | 255° |
| 2026-05-07 14:53 | 32.51314 | -126.89880 | 36263 ft | 455 kts | 255° |
| 2026-05-07 14:53 | 32.49552 | -126.97071 | 36263 ft | 454 kts | 255° |
| 2026-05-07 14:54 | 32.47783 | -127.04269 | 36262 ft | 455 kts | 255° |
| 2026-05-07 14:54 | 32.46011 | -127.11461 | 36263 ft | 456 kts | 255° |
| 2026-05-07 14:55 | 32.44233 | -127.18658 | 36266 ft | 456 kts | 255° |
| 2026-05-07 14:55 | 32.42449 | -127.25857 | 36262 ft | 456 kts | 255° |
| 2026-05-07 14:56 | 32.40668 | -127.33025 | 36264 ft | 457 kts | 255° |
| 2026-05-07 14:56 | 32.38875 | -127.40226 | 36264 ft | 457 kts | 255° |
| 2026-05-07 14:57 | 32.37074 | -127.47436 | 36266 ft | 457 kts | 255° |
| 2026-05-07 14:57 | 32.35263 | -127.54670 | 36271 ft | 459 kts | 256° |
| 2026-05-07 14:58 | 32.33444 | -127.61915 | 36267 ft | 459 kts | 256° |
| 2026-05-07 14:58 | 32.31626 | -127.69135 | 36267 ft | 459 kts | 256° |
| 2026-05-07 14:59 | 32.29797 | -127.76385 | 36266 ft | 461 kts | 257° |
| 2026-05-07 14:59 | 32.27956 | -127.83657 | 36271 ft | 462 kts | 257° |
| 2026-05-07 15:00 | 32.26123 | -127.90879 | 36270 ft | 462 kts | 257° |
| 2026-05-07 15:00 | 32.24278 | -127.98133 | 36264 ft | 462 kts | 257° |
| 2026-05-07 15:01 | 32.22419 | -128.05415 | 36274 ft | 463 kts | 257° |
| 2026-05-07 15:01 | 32.20556 | -128.12700 | 36274 ft | 463 kts | 257° |
| 2026-05-07 15:02 | 32.18688 | -128.19984 | 36265 ft | 463 kts | 257° |
| 2026-05-07 15:02 | 32.16819 | -128.27252 | 36274 ft | 464 kts | 257° |
| 2026-05-07 15:03 | 32.14940 | -128.34540 | 36273 ft | 463 kts | 257° |
| 2026-05-07 15:03 | 32.13059 | -128.41815 | 36273 ft | 464 kts | 257° |
| 2026-05-07 15:04 | 32.11173 | -128.49092 | 36274 ft | 464 kts | 257° |
| 2026-05-07 15:04 | 32.09287 | -128.56348 | 36274 ft | 464 kts | 257° |
| 2026-05-07 15:05 | 32.07391 | -128.63624 | 36276 ft | 464 kts | 257° |
| 2026-05-07 15:05 | 32.05492 | -128.70893 | 36275 ft | 463 kts | 257° |
| 2026-05-07 15:06 | 32.03609 | -128.78086 | 36276 ft | 463 kts | 257° |
| 2026-05-07 15:06 | 32.01703 | -128.85342 | 36274 ft | 463 kts | 257° |
| 2026-05-07 15:07 | 31.99795 | -128.92590 | 36271 ft | 463 kts | 257° |
| 2026-05-07 15:07 | 31.97886 | -128.99826 | 36275 ft | 462 kts | 257° |
| 2026-05-07 15:08 | 31.95977 | -129.07039 | 36279 ft | 463 kts | 257° |
| 2026-05-07 15:08 | 31.94055 | -129.14284 | 36270 ft | 462 kts | 257° |
| 2026-05-07 15:09 | 31.92132 | -129.21512 | 36274 ft | 462 kts | 257° |
| 2026-05-07 15:09 | 31.90209 | -129.28727 | 36276 ft | 462 kts | 256° |
| 2026-05-07 15:10 | 31.88299 | -129.35870 | 36268 ft | 462 kts | 256° |
| 2026-05-07 15:10 | 31.86371 | -129.43066 | 36276 ft | 461 kts | 256° |
| 2026-05-07 15:11 | 31.84439 | -129.50256 | 36280 ft | 461 kts | 256° |
| 2026-05-07 15:11 | 31.82505 | -129.57437 | 36279 ft | 461 kts | 256° |
| 2026-05-07 15:12 | 31.80898 | -129.63390 | 36278 ft | 460 kts | 256° |
| 2026-05-07 15:12 | 31.78959 | -129.70557 | 36282 ft | 460 kts | 256° |
| 2026-05-07 15:13 | 31.77017 | -129.77715 | 36281 ft | 460 kts | 256° |
| 2026-05-07 15:13 | 31.75069 | -129.84878 | 36278 ft | 460 kts | 256° |
| 2026-05-07 15:14 | 31.73124 | -129.92013 | 36279 ft | 459 kts | 256° |
| 2026-05-07 15:14 | 31.71174 | -129.99151 | 36282 ft | 459 kts | 256° |
| 2026-05-07 15:15 | 31.69217 | -130.06296 | 36277 ft | 459 kts | 256° |
| 2026-05-07 15:15 | 31.67257 | -130.13433 | 36283 ft | 459 kts | 256° |
| 2026-05-07 15:16 | 31.65299 | -130.20544 | 36284 ft | 459 kts | 256° |
| 2026-05-07 15:16 | 31.63345 | -130.27625 | 36278 ft | 459 kts | 256° |
| 2026-05-07 15:17 | 31.61375 | -130.34748 | 36280 ft | 458 kts | 256° |
| 2026-05-07 15:17 | 31.59404 | -130.41856 | 36292 ft | 458 kts | 256° |
| 2026-05-07 15:18 | 31.57432 | -130.48949 | 36283 ft | 458 kts | 256° |
| 2026-05-07 15:18 | 31.55449 | -130.56065 | 36292 ft | 458 kts | 256° |
| 2026-05-07 15:19 | 31.53466 | -130.63164 | 36298 ft | 458 kts | 256° |
| 2026-05-07 15:19 | 31.51479 | -130.70262 | 36298 ft | 458 kts | 255° |
| 2026-05-07 15:20 | 31.49506 | -130.77293 | 36294 ft | 458 kts | 255° |
| 2026-05-07 15:20 | 31.47510 | -130.84387 | 36287 ft | 458 kts | 255° |
| 2026-05-07 15:21 | 31.45510 | -130.91482 | 36281 ft | 458 kts | 255° |
| 2026-05-07 15:21 | 31.43508 | -130.98564 | 36298 ft | 458 kts | 255° |
| 2026-05-07 15:22 | 31.41506 | -131.05629 | 36296 ft | 458 kts | 255° |
| 2026-05-07 15:22 | 31.39495 | -131.12711 | 36294 ft | 458 kts | 255° |
| 2026-05-07 15:23 | 31.37480 | -131.19788 | 36290 ft | 458 kts | 255° |
| 2026-05-07 15:23 | 31.35465 | -131.26849 | 36291 ft | 458 kts | 255° |
| 2026-05-07 15:24 | 31.33450 | -131.33896 | 36293 ft | 458 kts | 255° |
| 2026-05-07 15:24 | 31.31439 | -131.40912 | 36287 ft | 458 kts | 255° |
| 2026-05-07 15:25 | 31.29415 | -131.47962 | 36296 ft | 457 kts | 255° |
| 2026-05-07 15:25 | 31.27388 | -131.55006 | 36293 ft | 457 kts | 255° |
| 2026-05-07 15:26 | 31.25360 | -131.62036 | 36293 ft | 457 kts | 255° |
| 2026-05-07 15:26 | 31.23324 | -131.69079 | 36295 ft | 457 kts | 255° |
| 2026-05-07 15:27 | 31.21284 | -131.76122 | 36295 ft | 457 kts | 255° |
| 2026-05-07 15:27 | 31.19240 | -131.83159 | 36295 ft | 457 kts | 255° |
| 2026-05-07 15:28 | 31.17198 | -131.90177 | 36295 ft | 457 kts | 255° |
| 2026-05-07 15:28 | 31.15158 | -131.97169 | 36295 ft | 457 kts | 255° |
| 2026-05-07 15:29 | 31.13091 | -132.04241 | 36294 ft | 457 kts | 255° |
| 2026-05-07 15:29 | 31.11048 | -132.11212 | 36296 ft | 457 kts | 255° |
| 2026-05-07 15:30 | 31.08973 | -132.18202 | 36293 ft | 457 kts | 255° |
| 2026-05-07 15:30 | 31.06900 | -132.25221 | 36292 ft | 458 kts | 255° |
| 2026-05-07 15:31 | 31.04823 | -132.32243 | 36289 ft | 458 kts | 255° |
| 2026-05-07 15:31 | 31.02745 | -132.39259 | 36289 ft | 458 kts | 255° |
| 2026-05-07 15:32 | 31.00665 | -132.46261 | 36293 ft | 458 kts | 255° |
| 2026-05-07 15:32 | 30.98590 | -132.53233 | 36293 ft | 458 kts | 255° |
| 2026-05-07 15:33 | 30.96498 | -132.60244 | 36291 ft | 458 kts | 255° |
| 2026-05-07 15:33 | 30.94404 | -132.67249 | 36294 ft | 458 kts | 255° |
| 2026-05-07 15:34 | 30.92310 | -132.74235 | 36294 ft | 458 kts | 254° |
| 2026-05-07 15:34 | 30.90208 | -132.81236 | 36285 ft | 458 kts | 254° |
| 2026-05-07 15:35 | 30.88103 | -132.88228 | 36281 ft | 458 kts | 254° |
| 2026-05-07 15:35 | 30.85996 | -132.95212 | 36287 ft | 458 kts | 254° |
| 2026-05-07 15:36 | 30.83881 | -133.02210 | 36293 ft | 458 kts | 254° |
| 2026-05-07 15:36 | 30.81760 | -133.09209 | 36294 ft | 458 kts | 254° |
| 2026-05-07 15:37 | 30.79638 | -133.16195 | 36286 ft | 458 kts | 254° |
| 2026-05-07 15:37 | 30.77531 | -133.23121 | 36285 ft | 458 kts | 254° |
| 2026-05-07 15:38 | 30.75401 | -133.30102 | 36286 ft | 458 kts | 254° |
| 2026-05-07 15:38 | 30.73265 | -133.37091 | 36293 ft | 458 kts | 254° |
| 2026-05-07 15:39 | 30.71131 | -133.44056 | 36278 ft | 458 kts | 254° |
| 2026-05-07 15:39 | 30.68997 | -133.51007 | 36282 ft | 458 kts | 254° |
| 2026-05-07 15:40 | 30.66857 | -133.57961 | 36283 ft | 458 kts | 253° |
| 2026-05-07 15:40 | 30.64721 | -133.64886 | 36272 ft | 457 kts | 253° |
| 2026-05-07 15:41 | 30.62577 | -133.71826 | 36282 ft | 457 kts | 253° |
| 2026-05-07 15:41 | 30.60431 | -133.78755 | 36275 ft | 457 kts | 253° |
| 2026-05-07 15:42 | 30.58276 | -133.85697 | 36282 ft | 457 kts | 253° |
| 2026-05-07 15:42 | 30.56123 | -133.92622 | 36284 ft | 457 kts | 253° |
| 2026-05-07 15:43 | 30.53958 | -133.99564 | 36286 ft | 456 kts | 253° |
| 2026-05-07 15:43 | 30.51802 | -134.06468 | 36280 ft | 455 kts | 253° |
| 2026-05-07 15:44 | 30.49642 | -134.13368 | 36281 ft | 455 kts | 253° |
| 2026-05-07 15:44 | 30.47489 | -134.20232 | 36282 ft | 455 kts | 253° |
| 2026-05-07 15:45 | 30.45320 | -134.27129 | 36279 ft | 455 kts | 253° |
| 2026-05-07 15:45 | 30.43163 | -134.33979 | 36279 ft | 454 kts | 253° |
| 2026-05-07 15:46 | 30.39906 | -134.44289 | 36271 ft | 454 kts | 253° |
| 2026-05-07 15:47 | 30.37734 | -134.51148 | 36275 ft | 453 kts | 253° |
| 2026-05-07 15:47 | 30.35562 | -134.57993 | 36276 ft | 453 kts | 252° |
| 2026-05-07 15:48 | 30.33390 | -134.64820 | 36276 ft | 453 kts | 252° |
| 2026-05-07 15:48 | 30.31211 | -134.71659 | 36275 ft | 452 kts | 252° |
| 2026-05-07 15:49 | 30.29032 | -134.78485 | 36274 ft | 452 kts | 252° |
| 2026-05-07 15:49 | 30.26848 | -134.85308 | 36271 ft | 452 kts | 252° |
| 2026-05-07 15:50 | 30.24667 | -134.92111 | 36272 ft | 452 kts | 252° |
| 2026-05-07 15:50 | 30.22487 | -134.98896 | 36273 ft | 452 kts | 252° |
| 2026-05-07 15:51 | 30.20281 | -135.05745 | 36268 ft | 451 kts | 252° |
| 2026-05-07 15:51 | 30.18106 | -135.12488 | 36271 ft | 451 kts | 252° |
| 2026-05-07 15:52 | 30.15914 | -135.19267 | 36268 ft | 451 kts | 252° |
| 2026-05-07 15:52 | 30.13712 | -135.26066 | 36266 ft | 450 kts | 252° |
| 2026-05-07 15:53 | 30.11512 | -135.32843 | 36270 ft | 450 kts | 252° |
| 2026-05-07 15:53 | 30.09306 | -135.39623 | 36273 ft | 450 kts | 251° |
| 2026-05-07 15:54 | 30.07110 | -135.46362 | 36260 ft | 449 kts | 252° |
| 2026-05-07 15:54 | 30.04920 | -135.53068 | 36265 ft | 450 kts | 252° |
| 2026-05-07 15:55 | 30.02709 | -135.59823 | 36270 ft | 449 kts | 251° |
| 2026-05-07 15:55 | 30.00500 | -135.66563 | 36263 ft | 448 kts | 251° |
| 2026-05-07 15:56 | 29.98295 | -135.73274 | 36263 ft | 448 kts | 251° |
| 2026-05-07 15:56 | 29.96085 | -135.79988 | 36262 ft | 448 kts | 251° |
| 2026-05-07 15:57 | 29.93871 | -135.86698 | 36268 ft | 447 kts | 251° |
| 2026-05-07 15:57 | 29.91656 | -135.93402 | 36265 ft | 447 kts | 251° |
| 2026-05-07 15:58 | 29.89442 | -136.00087 | 36259 ft | 448 kts | 251° |
| 2026-05-07 15:58 | 29.87229 | -136.06758 | 36261 ft | 447 kts | 251° |
| 2026-05-07 15:59 | 29.85004 | -136.13448 | 36264 ft | 447 kts | 251° |
| 2026-05-07 15:59 | 29.82775 | -136.20142 | 36263 ft | 447 kts | 251° |
| 2026-05-07 16:00 | 29.80927 | -136.25679 | 36258 ft | 447 kts | 251° |
| 2026-05-07 16:00 | 29.78690 | -136.32370 | 36261 ft | 447 kts | 251° |
| 2026-05-07 16:01 | 29.76451 | -136.39054 | 36263 ft | 447 kts | 251° |
| 2026-05-07 16:01 | 29.74213 | -136.45724 | 36258 ft | 447 kts | 251° |
| 2026-05-07 16:02 | 29.71974 | -136.52383 | 36257 ft | 447 kts | 251° |
| 2026-05-07 16:02 | 29.69728 | -136.59048 | 36269 ft | 447 kts | 251° |
| 2026-05-07 16:03 | 29.67483 | -136.65699 | 36258 ft | 446 kts | 251° |
| 2026-05-07 16:03 | 29.65235 | -136.72347 | 36258 ft | 446 kts | 251° |
| 2026-05-07 16:04 | 29.62990 | -136.78972 | 36260 ft | 446 kts | 251° |
| 2026-05-07 16:04 | 29.60730 | -136.85628 | 36258 ft | 447 kts | 251° |
| 2026-05-07 16:05 | 29.58469 | -136.92273 | 36257 ft | 447 kts | 251° |
| 2026-05-07 16:05 | 29.56218 | -136.98877 | 36258 ft | 446 kts | 251° |
| 2026-05-07 16:06 | 29.53961 | -137.05488 | 36258 ft | 445 kts | 251° |
| 2026-05-07 16:06 | 29.51696 | -137.12108 | 36258 ft | 445 kts | 251° |
| 2026-05-07 16:07 | 29.49427 | -137.18730 | 36253 ft | 445 kts | 251° |
| 2026-05-07 16:07 | 29.47159 | -137.25335 | 36251 ft | 444 kts | 251° |
| 2026-05-07 16:08 | 29.44896 | -137.31913 | 36253 ft | 444 kts | 251° |
| 2026-05-07 16:08 | 29.42622 | -137.38510 | 36250 ft | 445 kts | 250° |
| 2026-05-07 16:09 | 29.40344 | -137.45104 | 36254 ft | 444 kts | 250° |
| 2026-05-07 16:09 | 29.38066 | -137.51689 | 36254 ft | 444 kts | 250° |
| 2026-05-07 16:10 | 29.35804 | -137.58215 | 36255 ft | 444 kts | 250° |
| 2026-05-07 16:10 | 29.33518 | -137.64797 | 36252 ft | 443 kts | 250° |
| 2026-05-07 16:11 | 29.31234 | -137.71363 | 36251 ft | 443 kts | 250° |
| 2026-05-07 16:11 | 29.28946 | -137.77927 | 36251 ft | 444 kts | 250° |
| 2026-05-07 16:12 | 29.26661 | -137.84471 | 36251 ft | 443 kts | 250° |
| 2026-05-07 16:12 | 29.24368 | -137.91025 | 36249 ft | 443 kts | 250° |
| 2026-05-07 16:13 | 29.22077 | -137.97560 | 36243 ft | 443 kts | 250° |
| 2026-05-07 16:13 | 29.19775 | -138.04117 | 36250 ft | 443 kts | 250° |
| 2026-05-07 16:14 | 29.17479 | -138.10643 | 36248 ft | 443 kts | 250° |
| 2026-05-07 16:14 | 29.15177 | -138.17176 | 36249 ft | 443 kts | 250° |
| 2026-05-07 16:15 | 29.12884 | -138.23669 | 36249 ft | 443 kts | 250° |
| 2026-05-07 16:15 | 29.10574 | -138.30199 | 36247 ft | 443 kts | 250° |
| 2026-05-07 16:16 | 29.08260 | -138.36729 | 36248 ft | 443 kts | 250° |
| 2026-05-07 16:16 | 29.05940 | -138.43264 | 36246 ft | 443 kts | 250° |
| 2026-05-07 16:17 | 29.03618 | -138.49795 | 36244 ft | 443 kts | 250° |
| 2026-05-07 16:17 | 29.01307 | -138.56281 | 36244 ft | 443 kts | 250° |
| 2026-05-07 16:18 | 28.98986 | -138.62785 | 36240 ft | 443 kts | 250° |
| 2026-05-07 16:18 | 28.96663 | -138.69280 | 36241 ft | 443 kts | 250° |
| 2026-05-07 16:19 | 28.94335 | -138.75781 | 36243 ft | 442 kts | 250° |
| 2026-05-07 16:19 | 28.92001 | -138.82287 | 36244 ft | 442 kts | 250° |
| 2026-05-07 16:20 | 28.89672 | -138.88771 | 36237 ft | 443 kts | 250° |
| 2026-05-07 16:20 | 28.87328 | -138.95283 | 36241 ft | 443 kts | 250° |
| 2026-05-07 16:21 | 28.84982 | -139.01791 | 36241 ft | 443 kts | 250° |
| 2026-05-07 16:21 | 28.82633 | -139.08295 | 36245 ft | 443 kts | 250° |
| 2026-05-07 16:22 | 28.80289 | -139.14775 | 36239 ft | 442 kts | 250° |
| 2026-05-07 16:22 | 28.77955 | -139.21214 | 36241 ft | 443 kts | 250° |
| 2026-05-07 16:23 | 28.75594 | -139.27718 | 36239 ft | 444 kts | 249° |
| 2026-05-07 16:23 | 28.73234 | -139.34207 | 36241 ft | 443 kts | 250° |
| 2026-05-07 16:24 | 28.70882 | -139.40662 | 36240 ft | 442 kts | 250° |
| 2026-05-07 16:24 | 28.68844 | -139.47235 | 36201 ft | 442 kts | 245° |
| 2026-05-07 16:25 | 28.66262 | -139.53605 | 36245 ft | 443 kts | 249° |
| 2026-05-07 16:25 | 28.63863 | -139.60058 | 36229 ft | 442 kts | 249° |
| 2026-05-07 16:26 | 28.61483 | -139.66515 | 36235 ft | 442 kts | 249° |
| 2026-05-07 16:26 | 28.59120 | -139.72916 | 36236 ft | 442 kts | 249° |
| 2026-05-07 16:27 | 28.56736 | -139.79358 | 36220 ft | 441 kts | 250° |
| 2026-05-07 16:27 | 28.54354 | -139.85798 | 36231 ft | 442 kts | 249° |
| 2026-05-07 16:28 | 28.51968 | -139.92231 | 36230 ft | 442 kts | 249° |
| 2026-05-07 16:28 | 28.49579 | -139.98654 | 36231 ft | 442 kts | 249° |
| 2026-05-07 16:29 | 28.47190 | -140.05079 | 36229 ft | 440 kts | 249° |
| 2026-05-07 16:29 | 28.44802 | -140.11491 | 36227 ft | 441 kts | 249° |
| 2026-05-07 16:30 | 28.42402 | -140.17909 | 36231 ft | 441 kts | 249° |
| 2026-05-07 16:30 | 28.40020 | -140.24271 | 36230 ft | 441 kts | 249° |
| 2026-05-07 16:31 | 28.37621 | -140.30678 | 36230 ft | 441 kts | 249° |
| 2026-05-07 16:31 | 28.35217 | -140.37080 | 36228 ft | 441 kts | 249° |
| 2026-05-07 16:32 | 28.32814 | -140.43477 | 36227 ft | 441 kts | 249° |
| 2026-05-07 16:32 | 28.30406 | -140.49863 | 36225 ft | 441 kts | 249° |
| 2026-05-07 16:33 | 28.27994 | -140.56256 | 36227 ft | 441 kts | 249° |
| 2026-05-07 16:33 | 28.25580 | -140.62644 | 36221 ft | 441 kts | 249° |
| 2026-05-07 16:34 | 28.23158 | -140.69033 | 36226 ft | 440 kts | 249° |
| 2026-05-07 16:34 | 28.20755 | -140.75389 | 36220 ft | 440 kts | 249° |
| 2026-05-07 16:35 | 28.18338 | -140.81739 | 36225 ft | 441 kts | 249° |
| 2026-05-07 16:35 | 28.15912 | -140.88117 | 36226 ft | 441 kts | 249° |
| 2026-05-07 16:36 | 28.13484 | -140.94483 | 36216 ft | 439 kts | 249° |
| 2026-05-07 16:36 | 28.11063 | -141.00828 | 36220 ft | 439 kts | 249° |
| 2026-05-07 16:37 | 28.08640 | -141.07175 | 36215 ft | 440 kts | 249° |
| 2026-05-07 16:37 | 28.06196 | -141.13545 | 36215 ft | 441 kts | 249° |
| 2026-05-07 16:38 | 28.03757 | -141.19904 | 36219 ft | 440 kts | 249° |
| 2026-05-07 16:38 | 28.01319 | -141.26247 | 36224 ft | 441 kts | 249° |
| 2026-05-07 16:39 | 27.98889 | -141.32562 | 36220 ft | 441 kts | 249° |
| 2026-05-07 16:39 | 27.96440 | -141.38909 | 36210 ft | 440 kts | 249° |
| 2026-05-07 16:40 | 27.93988 | -141.45261 | 36217 ft | 440 kts | 249° |
| 2026-05-07 16:40 | 27.91541 | -141.51587 | 36219 ft | 440 kts | 249° |
| 2026-05-07 16:41 | 27.89085 | -141.57927 | 36218 ft | 440 kts | 248° |
| 2026-05-07 16:41 | 27.86630 | -141.64252 | 36213 ft | 439 kts | 248° |
| 2026-05-07 16:42 | 27.84174 | -141.70570 | 36210 ft | 439 kts | 248° |
| 2026-05-07 16:42 | 27.81722 | -141.76869 | 36214 ft | 439 kts | 248° |
| 2026-05-07 16:43 | 27.79272 | -141.83145 | 36221 ft | 439 kts | 248° |
| 2026-05-07 16:43 | 27.76813 | -141.89447 | 36217 ft | 438 kts | 248° |
| 2026-05-07 16:44 | 27.74333 | -141.95787 | 36211 ft | 438 kts | 248° |
| 2026-05-07 16:44 | 27.71888 | -142.02027 | 36201 ft | 439 kts | 248° |
| 2026-05-07 16:45 | 27.69412 | -142.08330 | 36215 ft | 439 kts | 248° |
| 2026-05-07 16:45 | 27.66935 | -142.14634 | 36211 ft | 439 kts | 248° |
| 2026-05-07 16:46 | 27.64460 | -142.20918 | 36211 ft | 439 kts | 248° |
| 2026-05-07 16:46 | 27.61985 | -142.27194 | 36211 ft | 439 kts | 248° |
| 2026-05-07 16:47 | 27.59504 | -142.33475 | 36209 ft | 439 kts | 248° |
| 2026-05-07 16:47 | 27.57437 | -142.38705 | 36203 ft | 439 kts | 248° |
| 2026-05-07 16:48 | 27.54945 | -142.44990 | 36203 ft | 440 kts | 248° |
| 2026-05-07 16:48 | 27.52042 | -142.52306 | 36206 ft | 440 kts | 248° |
| 2026-05-07 16:49 | 27.49971 | -142.57515 | 36206 ft | 439 kts | 248° |
| 2026-05-07 16:49 | 27.47457 | -142.63833 | 36205 ft | 439 kts | 248° |
| 2026-05-07 16:50 | 27.44958 | -142.70104 | 36195 ft | 439 kts | 248° |
| 2026-05-07 16:50 | 27.42466 | -142.76341 | 36214 ft | 440 kts | 248° |
| 2026-05-07 16:51 | 27.39958 | -142.82612 | 36208 ft | 440 kts | 248° |
| 2026-05-07 16:51 | 27.37441 | -142.88895 | 36205 ft | 440 kts | 248° |
| 2026-05-07 16:52 | 27.34927 | -142.95163 | 36204 ft | 440 kts | 248° |
| 2026-05-07 16:52 | 27.32409 | -143.01429 | 36210 ft | 440 kts | 248° |
| 2026-05-07 16:53 | 27.29892 | -143.07685 | 36209 ft | 441 kts | 248° |
| 2026-05-07 16:53 | 27.27364 | -143.13954 | 36208 ft | 441 kts | 248° |
| 2026-05-07 16:54 | 27.24826 | -143.20240 | 36202 ft | 441 kts | 248° |
| 2026-05-07 16:54 | 27.22306 | -143.26474 | 36202 ft | 441 kts | 248° |
| 2026-05-07 16:55 | 27.19773 | -143.32729 | 36199 ft | 441 kts | 248° |
| 2026-05-07 16:55 | 27.17228 | -143.39005 | 36194 ft | 441 kts | 248° |
| 2026-05-07 16:56 | 27.14679 | -143.45277 | 36201 ft | 442 kts | 248° |
| 2026-05-07 16:56 | 27.10848 | -143.54691 | 36208 ft | 442 kts | 248° |
| 2026-05-07 16:57 | 27.08316 | -143.60901 | 36201 ft | 442 kts | 248° |
| 2026-05-07 16:57 | 27.05756 | -143.67168 | 36195 ft | 442 kts | 248° |
| 2026-05-07 16:58 | 27.03194 | -143.73434 | 36186 ft | 442 kts | 248° |
| 2026-05-07 16:58 | 27.00622 | -143.79708 | 36204 ft | 443 kts | 248° |
| 2026-05-07 16:59 | 26.98050 | -143.85977 | 36195 ft | 443 kts | 248° |
| 2026-05-07 16:59 | 26.95474 | -143.92246 | 36196 ft | 443 kts | 248° |
| 2026-05-07 17:00 | 26.92907 | -143.98483 | 36203 ft | 443 kts | 248° |
| 2026-05-07 17:00 | 26.90322 | -144.04754 | 36196 ft | 443 kts | 248° |
| 2026-05-07 17:01 | 26.87728 | -144.11039 | 36193 ft | 444 kts | 247° |
| 2026-05-07 17:01 | 26.85153 | -144.17267 | 36198 ft | 444 kts | 247° |
| 2026-05-07 17:02 | 26.82556 | -144.23539 | 36198 ft | 444 kts | 247° |
| 2026-05-07 17:02 | 26.79958 | -144.29804 | 36201 ft | 444 kts | 247° |
| 2026-05-07 17:03 | 26.77358 | -144.36062 | 36196 ft | 444 kts | 247° |
| 2026-05-07 17:03 | 26.74749 | -144.42335 | 36190 ft | 444 kts | 247° |
| 2026-05-07 17:04 | 26.72138 | -144.48603 | 36196 ft | 445 kts | 247° |
| 2026-05-07 17:04 | 26.69521 | -144.54876 | 36196 ft | 445 kts | 247° |
| 2026-05-07 17:05 | 26.66902 | -144.61143 | 36192 ft | 445 kts | 247° |
| 2026-05-07 17:05 | 26.64293 | -144.67376 | 36195 ft | 445 kts | 247° |
| 2026-05-07 17:06 | 26.61664 | -144.73649 | 36194 ft | 445 kts | 247° |
| 2026-05-07 17:06 | 26.59033 | -144.79919 | 36187 ft | 446 kts | 247° |
| 2026-05-07 17:07 | 26.56399 | -144.86183 | 36191 ft | 447 kts | 247° |
| 2026-05-07 17:07 | 26.53757 | -144.92459 | 36192 ft | 446 kts | 247° |
| 2026-05-07 17:08 | 26.51112 | -144.98731 | 36190 ft | 446 kts | 247° |
| 2026-05-07 17:08 | 26.48461 | -145.05010 | 36190 ft | 447 kts | 247° |
| 2026-05-07 17:09 | 26.45816 | -145.11264 | 36189 ft | 447 kts | 247° |
| 2026-05-07 17:09 | 26.43158 | -145.17538 | 36189 ft | 447 kts | 247° |
| 2026-05-07 17:10 | 26.40500 | -145.23806 | 36189 ft | 447 kts | 247° |
| 2026-05-07 17:10 | 26.37839 | -145.30070 | 36186 ft | 447 kts | 247° |
| 2026-05-07 17:11 | 26.35178 | -145.36324 | 36184 ft | 447 kts | 247° |
| 2026-05-07 17:11 | 26.32526 | -145.42548 | 36184 ft | 447 kts | 247° |
| 2026-05-07 17:12 | 26.29856 | -145.48806 | 36175 ft | 447 kts | 246° |
| 2026-05-07 17:12 | 26.27176 | -145.55079 | 36184 ft | 448 kts | 246° |
| 2026-05-07 17:13 | 26.24498 | -145.61340 | 36184 ft | 449 kts | 246° |
| 2026-05-07 17:13 | 26.21813 | -145.67608 | 36185 ft | 449 kts | 246° |
| 2026-05-07 17:14 | 26.19122 | -145.73881 | 36184 ft | 449 kts | 246° |
| 2026-05-07 17:14 | 26.16428 | -145.80152 | 36191 ft | 449 kts | 246° |
| 2026-05-07 17:15 | 26.13742 | -145.86396 | 36175 ft | 449 kts | 246° |
| 2026-05-07 17:15 | 26.11035 | -145.92677 | 36183 ft | 449 kts | 246° |
| 2026-05-07 17:16 | 26.08331 | -145.98945 | 36184 ft | 449 kts | 246° |
| 2026-05-07 17:16 | 26.05641 | -146.05171 | 36181 ft | 449 kts | 246° |
| 2026-05-07 17:17 | 26.02937 | -146.11420 | 36181 ft | 449 kts | 246° |
| 2026-05-07 17:17 | 26.00213 | -146.17688 | 36182 ft | 450 kts | 246° |
| 2026-05-07 17:18 | 25.97493 | -146.23951 | 36177 ft | 451 kts | 246° |
| 2026-05-07 17:18 | 25.96128 | -146.27095 | 36413 ft | 451 kts | 246° |
| 2026-05-07 17:18 | 25.94766 | -146.30232 | 36672 ft | 451 kts | 246° |
| 2026-05-07 17:19 | 25.93404 | -146.33367 | 36940 ft | 450 kts | 246° |
| 2026-05-07 17:19 | 25.92050 | -146.36481 | 37215 ft | 449 kts | 246° |
| 2026-05-07 17:19 | 25.90690 | -146.39607 | 37479 ft | 449 kts | 246° |
| 2026-05-07 17:19 | 25.89331 | -146.42728 | 37743 ft | 448 kts | 246° |
| 2026-05-07 17:20 | 25.87974 | -146.45843 | 38003 ft | 447 kts | 246° |
| 2026-05-07 17:20 | 25.86641 | -146.48901 | 38191 ft | 446 kts | 246° |
| 2026-05-07 17:20 | 25.83940 | -146.55088 | 38164 ft | 443 kts | 246° |
| 2026-05-07 17:21 | 25.81249 | -146.61244 | 38175 ft | 444 kts | 245° |
| 2026-05-07 17:21 | 25.78550 | -146.67410 | 38175 ft | 444 kts | 245° |
| 2026-05-07 17:22 | 25.75849 | -146.73572 | 38173 ft | 444 kts | 245° |
| 2026-05-07 17:22 | 25.73141 | -146.79741 | 38174 ft | 444 kts | 245° |
| 2026-05-07 17:23 | 25.70436 | -146.85893 | 38171 ft | 444 kts | 245° |
| 2026-05-07 17:23 | 25.67724 | -146.92054 | 38172 ft | 444 kts | 245° |
| 2026-05-07 17:24 | 25.65027 | -146.98173 | 38163 ft | 445 kts | 245° |
| 2026-05-07 17:24 | 25.62308 | -147.04333 | 38167 ft | 445 kts | 245° |
| 2026-05-07 17:25 | 25.59593 | -147.10474 | 38171 ft | 445 kts | 245° |
| 2026-05-07 17:25 | 25.56871 | -147.16622 | 38170 ft | 445 kts | 245° |
| 2026-05-07 17:26 | 25.54145 | -147.22771 | 38170 ft | 445 kts | 245° |
| 2026-05-07 17:26 | 25.51416 | -147.28918 | 38170 ft | 445 kts | 245° |
| 2026-05-07 17:27 | 25.48691 | -147.35048 | 38164 ft | 445 kts | 245° |
| 2026-05-07 17:27 | 25.45955 | -147.41193 | 38171 ft | 445 kts | 245° |
| 2026-05-07 17:28 | 25.43218 | -147.47333 | 38168 ft | 445 kts | 245° |
| 2026-05-07 17:28 | 25.40498 | -147.53428 | 38168 ft | 445 kts | 245° |
| 2026-05-07 17:29 | 25.37762 | -147.59547 | 38168 ft | 445 kts | 245° |
| 2026-05-07 17:29 | 25.35015 | -147.65685 | 38171 ft | 445 kts | 245° |
| 2026-05-07 17:30 | 25.32266 | -147.71815 | 38158 ft | 445 kts | 244° |
| 2026-05-07 17:30 | 25.29516 | -147.77943 | 38167 ft | 445 kts | 244° |
| 2026-05-07 17:31 | 25.26771 | -147.84050 | 38165 ft | 445 kts | 244° |
| 2026-05-07 17:31 | 25.24013 | -147.90177 | 38165 ft | 445 kts | 244° |
| 2026-05-07 17:32 | 25.21255 | -147.96296 | 38166 ft | 445 kts | 244° |
| 2026-05-07 17:32 | 25.18958 | -148.01386 | 38165 ft | 445 kts | 244° |
| 2026-05-07 17:33 | 25.15737 | -148.08515 | 38155 ft | 445 kts | 244° |
| 2026-05-07 17:33 | 25.12986 | -148.14592 | 38166 ft | 445 kts | 244° |
| 2026-05-07 17:34 | 25.10215 | -148.20707 | 38167 ft | 445 kts | 244° |
| 2026-05-07 17:34 | 25.07443 | -148.26817 | 38162 ft | 445 kts | 244° |
| 2026-05-07 17:35 | 25.04675 | -148.32908 | 38162 ft | 445 kts | 244° |
| 2026-05-07 17:35 | 25.01895 | -148.39017 | 38162 ft | 445 kts | 244° |
| 2026-05-07 17:36 | 24.99113 | -148.45123 | 38163 ft | 445 kts | 244° |
| 2026-05-07 17:36 | 24.96800 | -148.50192 | 38163 ft | 445 kts | 244° |
| 2026-05-07 17:37 | 24.93571 | -148.57261 | 38162 ft | 445 kts | 244° |
| 2026-05-07 17:37 | 24.90782 | -148.63359 | 38159 ft | 445 kts | 244° |
| 2026-05-07 17:38 | 24.88441 | -148.68468 | 38159 ft | 445 kts | 244° |
| 2026-05-07 17:38 | 24.85668 | -148.74517 | 38160 ft | 446 kts | 244° |
| 2026-05-07 17:39 | 24.82870 | -148.80609 | 38162 ft | 446 kts | 244° |
| 2026-05-07 17:39 | 24.80074 | -148.86688 | 38159 ft | 445 kts | 244° |
| 2026-05-07 17:40 | 24.77275 | -148.92768 | 38160 ft | 446 kts | 244° |
| 2026-05-07 17:40 | 24.74470 | -148.98852 | 38159 ft | 446 kts | 243° |
| 2026-05-07 17:41 | 24.71666 | -149.04927 | 38160 ft | 446 kts | 243° |
| 2026-05-07 17:41 | 24.68864 | -149.10987 | 38154 ft | 445 kts | 243° |
| 2026-05-07 17:42 | 24.66055 | -149.17057 | 38154 ft | 445 kts | 243° |
| 2026-05-07 17:42 | 24.63242 | -149.23126 | 38156 ft | 445 kts | 243° |
| 2026-05-07 17:43 | 24.60441 | -149.29161 | 38156 ft | 446 kts | 243° |
| 2026-05-07 17:43 | 24.57621 | -149.35230 | 38155 ft | 446 kts | 243° |
| 2026-05-07 17:44 | 24.54797 | -149.41298 | 38155 ft | 446 kts | 243° |
| 2026-05-07 17:44 | 24.51971 | -149.47363 | 38154 ft | 446 kts | 243° |
| 2026-05-07 17:45 | 24.49139 | -149.53434 | 38154 ft | 446 kts | 243° |
| 2026-05-07 17:45 | 24.46331 | -149.59446 | 38152 ft | 446 kts | 243° |
| 2026-05-07 17:46 | 24.43496 | -149.65504 | 38141 ft | 446 kts | 243° |
| 2026-05-07 17:46 | 24.40657 | -149.71566 | 38153 ft | 447 kts | 243° |
| 2026-05-07 17:47 | 24.37809 | -149.77641 | 38151 ft | 447 kts | 243° |
| 2026-05-07 17:47 | 24.34965 | -149.83697 | 38151 ft | 447 kts | 243° |
| 2026-05-07 17:48 | 24.32114 | -149.89760 | 38152 ft | 447 kts | 243° |
| 2026-05-07 17:48 | 24.29277 | -149.95787 | 38151 ft | 447 kts | 243° |
| 2026-05-07 17:49 | 24.26416 | -150.01856 | 38151 ft | 447 kts | 243° |
| 2026-05-07 17:49 | 24.23563 | -150.07900 | 38150 ft | 448 kts | 242° |
| 2026-05-07 17:50 | 24.20695 | -150.13969 | 38148 ft | 448 kts | 242° |
| 2026-05-07 17:50 | 24.17825 | -150.20033 | 38152 ft | 448 kts | 242° |
| 2026-05-07 17:51 | 24.14952 | -150.26096 | 38146 ft | 448 kts | 242° |
| 2026-05-07 17:51 | 24.12085 | -150.32140 | 38145 ft | 448 kts | 242° |
| 2026-05-07 17:52 | 24.09227 | -150.38155 | 38148 ft | 448 kts | 242° |
| 2026-05-07 17:52 | 24.06348 | -150.44208 | 38145 ft | 448 kts | 242° |
| 2026-05-07 17:53 | 24.03463 | -150.50266 | 38149 ft | 448 kts | 242° |
| 2026-05-07 17:53 | 24.00586 | -150.56300 | 38143 ft | 448 kts | 242° |
| 2026-05-07 17:54 | 23.97696 | -150.62352 | 38143 ft | 448 kts | 242° |
| 2026-05-07 17:54 | 23.94809 | -150.68392 | 38143 ft | 448 kts | 242° |
| 2026-05-07 17:55 | 23.91917 | -150.74432 | 38144 ft | 448 kts | 242° |
| 2026-05-07 17:55 | 23.89030 | -150.80455 | 38143 ft | 448 kts | 242° |
| 2026-05-07 17:56 | 23.86151 | -150.86456 | 38132 ft | 448 kts | 242° |
| 2026-05-07 17:56 | 23.83252 | -150.92488 | 38140 ft | 448 kts | 242° |
| 2026-05-07 17:57 | 23.80824 | -150.97537 | 38143 ft | 448 kts | 242° |
| 2026-05-07 17:57 | 23.77460 | -151.04520 | 38147 ft | 448 kts | 242° |
| 2026-05-07 17:58 | 23.74554 | -151.10545 | 38141 ft | 448 kts | 242° |
| 2026-05-07 17:58 | 23.71647 | -151.16565 | 38141 ft | 448 kts | 242° |
| 2026-05-07 17:59 | 23.68735 | -151.22587 | 38140 ft | 448 kts | 242° |
| 2026-05-07 17:59 | 23.65829 | -151.28590 | 38138 ft | 448 kts | 242° |
| 2026-05-07 18:00 | 23.62933 | -151.34565 | 38143 ft | 448 kts | 242° |
| 2026-05-07 18:00 | 23.60018 | -151.40572 | 38141 ft | 448 kts | 242° |
| 2026-05-07 18:01 | 23.57099 | -151.46580 | 38138 ft | 449 kts | 242° |
| 2026-05-07 18:01 | 23.54178 | -151.52584 | 38135 ft | 449 kts | 241° |
| 2026-05-07 18:02 | 23.49783 | -151.61603 | 38135 ft | 449 kts | 241° |
| 2026-05-07 18:03 | 23.46854 | -151.67606 | 38128 ft | 449 kts | 241° |
| 2026-05-07 18:03 | 23.43932 | -151.73586 | 38135 ft | 449 kts | 241° |
| 2026-05-07 18:04 | 23.40999 | -151.79581 | 38137 ft | 449 kts | 241° |
| 2026-05-07 18:04 | 23.38081 | -151.85539 | 38139 ft | 449 kts | 241° |
| 2026-05-07 18:05 | 23.35142 | -151.91531 | 38141 ft | 449 kts | 241° |
| 2026-05-07 18:05 | 23.32200 | -151.97524 | 38132 ft | 449 kts | 241° |
| 2026-05-07 18:06 | 23.29257 | -152.03513 | 38127 ft | 449 kts | 241° |
| 2026-05-07 18:06 | 23.26311 | -152.09502 | 38126 ft | 449 kts | 241° |
| 2026-05-07 18:07 | 23.23363 | -152.15486 | 38133 ft | 449 kts | 241° |
| 2026-05-07 18:07 | 23.20415 | -152.21463 | 38132 ft | 449 kts | 241° |
| 2026-05-07 18:08 | 23.17465 | -152.27439 | 38133 ft | 449 kts | 241° |
| 2026-05-07 18:08 | 23.14509 | -152.33417 | 38130 ft | 449 kts | 241° |
| 2026-05-07 18:09 | 23.11550 | -152.39396 | 38129 ft | 449 kts | 241° |
| 2026-05-07 18:09 | 23.08606 | -152.45338 | 38129 ft | 449 kts | 241° |
| 2026-05-07 18:10 | 23.05633 | -152.51333 | 38129 ft | 449 kts | 241° |
| 2026-05-07 18:10 | 23.02683 | -152.57262 | 38129 ft | 449 kts | 240° |
| 2026-05-07 18:11 | 22.99690 | -152.63214 | 38126 ft | 449 kts | 241° |
| 2026-05-07 18:11 | 22.96708 | -152.69157 | 38128 ft | 449 kts | 241° |
| 2026-05-07 18:12 | 22.93732 | -152.75084 | 38128 ft | 449 kts | 241° |
| 2026-05-07 18:12 | 22.90744 | -152.81028 | 38129 ft | 449 kts | 241° |
| 2026-05-07 18:13 | 22.87754 | -152.86970 | 38127 ft | 448 kts | 240° |
| 2026-05-07 18:13 | 22.84763 | -152.92906 | 38126 ft | 448 kts | 240° |
| 2026-05-07 18:14 | 22.81782 | -152.98816 | 38122 ft | 448 kts | 240° |
| 2026-05-07 18:14 | 22.78790 | -153.04739 | 38125 ft | 448 kts | 240° |
| 2026-05-07 18:15 | 22.75812 | -153.10630 | 38125 ft | 448 kts | 240° |
| 2026-05-07 18:15 | 22.72818 | -153.16544 | 38126 ft | 448 kts | 240° |
| 2026-05-07 18:16 | 22.69820 | -153.22458 | 38126 ft | 449 kts | 240° |
| 2026-05-07 18:16 | 22.66817 | -153.28377 | 38128 ft | 448 kts | 240° |
| 2026-05-07 18:17 | 22.63810 | -153.34298 | 38122 ft | 448 kts | 240° |
| 2026-05-07 18:17 | 22.60804 | -153.40208 | 38124 ft | 447 kts | 240° |
| 2026-05-07 18:18 | 22.57809 | -153.46090 | 38128 ft | 447 kts | 240° |
| 2026-05-07 18:18 | 22.54802 | -153.51989 | 38126 ft | 447 kts | 240° |
| 2026-05-07 18:19 | 22.51791 | -153.57889 | 38123 ft | 447 kts | 240° |
| 2026-05-07 18:19 | 22.48803 | -153.63736 | 38129 ft | 447 kts | 240° |
| 2026-05-07 18:20 | 22.45798 | -153.69611 | 38126 ft | 447 kts | 240° |
| 2026-05-07 18:20 | 22.42784 | -153.75498 | 38129 ft | 447 kts | 240° |
| 2026-05-07 18:21 | 22.39768 | -153.81382 | 38129 ft | 447 kts | 240° |
| 2026-05-07 18:21 | 22.36748 | -153.87253 | 38125 ft | 446 kts | 239° |
| 2026-05-07 18:22 | 22.33485 | -153.92934 | 38129 ft | 446 kts | 238° |
| 2026-05-07 18:22 | 22.30229 | -153.98644 | 38130 ft | 446 kts | 238° |
| 2026-05-07 18:23 | 22.26976 | -154.04351 | 38126 ft | 446 kts | 238° |
| 2026-05-07 18:23 | 22.23739 | -154.10025 | 38127 ft | 446 kts | 238° |
| 2026-05-07 18:24 | 22.20484 | -154.15725 | 38127 ft | 447 kts | 238° |
| 2026-05-07 18:24 | 22.17233 | -154.21411 | 38127 ft | 446 kts | 238° |
| 2026-05-07 18:25 | 22.13984 | -154.27089 | 38123 ft | 445 kts | 238° |
| 2026-05-07 18:25 | 22.10727 | -154.32774 | 38127 ft | 445 kts | 238° |
| 2026-05-07 18:26 | 22.07478 | -154.38438 | 38130 ft | 445 kts | 238° |
| 2026-05-07 18:26 | 22.04768 | -154.43159 | 38127 ft | 445 kts | 238° |
| 2026-05-07 18:27 | 22.01505 | -154.48837 | 38127 ft | 445 kts | 238° |
| 2026-05-07 18:27 | 21.98244 | -154.54506 | 38127 ft | 445 kts | 238° |
| 2026-05-07 18:28 | 21.95052 | -154.60205 | 38121 ft | 444 kts | 242° |
| 2026-05-07 18:28 | 21.92156 | -154.66058 | 38124 ft | 443 kts | 241° |
| 2026-05-07 18:29 | 21.89217 | -154.71900 | 38125 ft | 443 kts | 241° |
| 2026-05-07 18:29 | 21.86276 | -154.77728 | 38127 ft | 443 kts | 241° |
| 2026-05-07 18:30 | 21.83336 | -154.83548 | 38127 ft | 443 kts | 241° |
| 2026-05-07 18:30 | 21.80393 | -154.89367 | 38094 ft | 442 kts | 241° |
| 2026-05-07 18:30 | 21.78932 | -154.92254 | 37433 ft | 439 kts | 241° |
| 2026-05-07 18:31 | 21.77465 | -154.95150 | 36373 ft | 440 kts | 241° |
| 2026-05-07 18:31 | 21.76017 | -154.98009 | 35537 ft | 444 kts | 241° |
| 2026-05-07 18:31 | 21.74513 | -155.00974 | 34755 ft | 446 kts | 241° |
| 2026-05-07 18:31 | 21.73044 | -155.03872 | 34070 ft | 447 kts | 241° |
| 2026-05-07 18:32 | 21.71563 | -155.06788 | 33241 ft | 448 kts | 241° |
| 2026-05-07 18:32 | 21.70062 | -155.09744 | 32396 ft | 450 kts | 241° |
| 2026-05-07 18:32 | 21.68556 | -155.12708 | 31584 ft | 452 kts | 241° |
| 2026-05-07 18:32 | 21.67040 | -155.15689 | 30733 ft | 455 kts | 241° |
| 2026-05-07 18:33 | 21.65515 | -155.18688 | 29785 ft | 459 kts | 241° |
| 2026-05-07 18:33 | 21.63978 | -155.21708 | 28734 ft | 462 kts | 241° |
| 2026-05-07 18:33 | 21.62430 | -155.24747 | 27764 ft | 464 kts | 241° |
| 2026-05-07 18:33 | 21.60875 | -155.27799 | 26815 ft | 466 kts | 241° |
| 2026-05-07 18:34 | 21.59331 | -155.30828 | 26101 ft | 463 kts | 241° |
| 2026-05-07 18:34 | 21.57792 | -155.33845 | 25352 ft | 463 kts | 241° |
| 2026-05-07 18:34 | 21.56241 | -155.36883 | 24589 ft | 464 kts | 241° |
| 2026-05-07 18:34 | 21.54690 | -155.39920 | 23836 ft | 464 kts | 241° |
| 2026-05-07 18:35 | 21.53138 | -155.42958 | 22986 ft | 461 kts | 241° |
| 2026-05-07 18:35 | 21.51603 | -155.45959 | 22216 ft | 457 kts | 241° |
| 2026-05-07 18:35 | 21.50081 | -155.48934 | 21459 ft | 453 kts | 241° |
| 2026-05-07 18:35 | 21.48571 | -155.51884 | 20748 ft | 450 kts | 241° |
| 2026-05-07 18:36 | 21.47070 | -155.54815 | 20036 ft | 447 kts | 241° |
| 2026-05-07 18:36 | 21.45575 | -155.57734 | 19320 ft | 445 kts | 241° |
| 2026-05-07 18:36 | 21.44088 | -155.60634 | 18689 ft | 441 kts | 241° |
| 2026-05-07 18:36 | 21.42638 | -155.63459 | 17904 ft | 435 kts | 241° |
| 2026-05-07 18:37 | 21.41191 | -155.66279 | 16745 ft | 428 kts | 241° |
| 2026-05-07 18:37 | 21.39760 | -155.69065 | 15877 ft | 424 kts | 241° |
| 2026-05-07 18:37 | 21.38342 | -155.71826 | 15299 ft | 419 kts | 241° |
| 2026-05-07 18:37 | 21.36943 | -155.74548 | 14782 ft | 413 kts | 241° |
| 2026-05-07 18:38 | 21.35574 | -155.77209 | 14328 ft | 406 kts | 241° |
| 2026-05-07 18:38 | 21.34216 | -155.79848 | 13735 ft | 402 kts | 241° |
| 2026-05-07 18:38 | 21.32864 | -155.82474 | 13024 ft | 402 kts | 241° |
| 2026-05-07 18:38 | 21.31518 | -155.85087 | 12473 ft | 397 kts | 241° |
| 2026-05-07 18:39 | 21.30189 | -155.87667 | 11924 ft | 393 kts | 241° |
| 2026-05-07 18:39 | 21.28879 | -155.90207 | 11613 ft | 383 kts | 241° |
| 2026-05-07 18:39 | 21.27613 | -155.92661 | 11403 ft | 371 kts | 241° |
| 2026-05-07 18:39 | 21.26382 | -155.95048 | 11212 ft | 359 kts | 241° |
| 2026-05-07 18:40 | 21.25189 | -155.97359 | 11016 ft | 349 kts | 241° |
| 2026-05-07 18:40 | 21.24222 | -155.99232 | 10875 ft | 340 kts | 241° |
| 2026-05-07 18:40 | 21.23091 | -156.01421 | 10688 ft | 330 kts | 241° |
| 2026-05-07 18:40 | 21.22008 | -156.03518 | 10533 ft | 321 kts | 241° |
| 2026-05-07 18:41 | 21.20939 | -156.05585 | 10373 ft | 312 kts | 241° |
| 2026-05-07 18:41 | 21.19900 | -156.07595 | 10189 ft | 305 kts | 241° |
| 2026-05-07 18:41 | 21.18889 | -156.09551 | 10058 ft | 295 kts | 241° |
| 2026-05-07 18:41 | 21.17901 | -156.11451 | 9799 ft | 291 kts | 239° |
| 2026-05-07 18:42 | 21.16571 | -156.13063 | 9412 ft | 290 kts | 217° |
| 2026-05-07 18:42 | 21.14940 | -156.14330 | 9053 ft | 289 kts | 217° |
| 2026-05-07 18:42 | 21.13326 | -156.15590 | 8778 ft | 286 kts | 216° |
| 2026-05-07 18:42 | 21.11723 | -156.16833 | 8496 ft | 283 kts | 216° |
| 2026-05-07 18:43 | 21.10137 | -156.18057 | 8198 ft | 280 kts | 216° |
| 2026-05-07 18:43 | 21.08563 | -156.19269 | 7893 ft | 279 kts | 216° |
| 2026-05-07 18:43 | 21.07006 | -156.20467 | 7764 ft | 270 kts | 216° |
| 2026-05-07 18:43 | 21.05504 | -156.21622 | 7648 ft | 261 kts | 216° |
| 2026-05-07 18:44 | 21.04050 | -156.22739 | 7527 ft | 253 kts | 216° |
| 2026-05-07 18:44 | 21.02645 | -156.23819 | 7390 ft | 245 kts | 216° |
| 2026-05-07 18:44 | 21.01263 | -156.24868 | 7160 ft | 242 kts | 216° |
| 2026-05-07 18:44 | 20.99890 | -156.25908 | 6880 ft | 242 kts | 216° |
| 2026-05-07 18:45 | 20.98517 | -156.26949 | 6608 ft | 241 kts | 215° |
| 2026-05-07 18:45 | 20.97131 | -156.28000 | 6302 ft | 246 kts | 215° |
| 2026-05-07 18:45 | 20.95729 | -156.29062 | 6013 ft | 247 kts | 215° |
| 2026-05-07 18:45 | 20.94343 | -156.30113 | 5738 ft | 247 kts | 215° |
| 2026-05-07 18:46 | 20.92949 | -156.31170 | 5459 ft | 246 kts | 215° |
| 2026-05-07 18:46 | 20.91550 | -156.32228 | 5198 ft | 246 kts | 215° |
| 2026-05-07 18:46 | 20.90149 | -156.33290 | 5037 ft | 241 kts | 215° |
| 2026-05-07 18:46 | 20.88825 | -156.34297 | 4920 ft | 235 kts | 215° |
| 2026-05-07 18:47 | 20.87495 | -156.35313 | 4676 ft | 237 kts | 215° |
| 2026-05-07 18:47 | 20.86135 | -156.36351 | 4370 ft | 243 kts | 215° |
| 2026-05-07 18:47 | 20.84731 | -156.37397 | 3938 ft | 249 kts | 213° |
| 2026-05-07 18:47 | 20.83341 | -156.38411 | 3850 ft | 239 kts | 214° |
| 2026-05-07 18:48 | 20.81983 | -156.39418 | 3581 ft | 237 kts | 214° |
| 2026-05-07 18:48 | 20.80613 | -156.40451 | 3154 ft | 243 kts | 219° |
| 2026-05-07 18:48 | 20.79510 | -156.41754 | 2825 ft | 231 kts | 240° |
| 2026-05-07 18:48 | 20.78993 | -156.43337 | 2499 ft | 219 kts | 267° |
| 2026-05-07 18:49 | 20.79111 | -156.44882 | 2271 ft | 201 kts | 289° |
| 2026-05-07 18:49 | 20.79722 | -156.46181 | 2026 ft | 190 kts | 310° |
| 2026-05-07 18:49 | 20.80631 | -156.47140 | 1666 ft | 178 kts | 327° |
| 2026-05-07 18:49 | 20.81664 | -156.47670 | 1520 ft | 152 kts | 347° |
| 2026-05-07 18:50 | 20.82663 | -156.47753 | 1388 ft | 145 kts | 5° |
| 2026-05-07 18:50 | 20.83641 | -156.47501 | 1270 ft | 146 kts | 23° |
| 2026-05-07 18:50 | 20.84530 | -156.46938 | 1094 ft | 148 kts | 34° |
| 2026-05-07 18:50 | 20.85349 | -156.46291 | 925 ft | 144 kts | 36° |
| 2026-05-07 18:51 | 20.86141 | -156.45685 | 728 ft | 143 kts | 33° |
| 2026-05-07 18:51 | 20.86974 | -156.45085 | 558 ft | 149 kts | 33° |
| 2026-05-07 18:51 | 20.87838 | -156.44450 | 326 ft | 149 kts | 35° |
| 2026-05-07 18:51 | 20.88667 | -156.43823 | 128 ft | 142 kts | 34° |
| 2026-05-07 18:52 | 20.89428 | -156.43253 | 48 ft | 123 kts | 35° |
| 2026-05-07 18:52 | 20.89994 | -156.42831 | 45 ft | 67 kts | 35° |
| 2026-05-07 18:52 | 20.90283 | -156.42619 | 47 ft | 49 kts | 34° |
| 2026-05-07 18:52 | 20.90479 | -156.42513 | 47 ft | 16 kts | 326° |
| 2026-05-07 18:53 | 20.90466 | -156.42605 | 48 ft | 17 kts | 249° |
| 2026-05-07 18:53 | 20.90356 | -156.42721 | 47 ft | 29 kts | 214° |
| 2026-05-07 18:53 | 20.90168 | -156.42859 | 44 ft | 34 kts | 216° |
| 2026-05-07 18:53 | 20.90001 | -156.42984 | 47 ft | 20 kts | 215° |
| 2026-05-07 18:54 | 20.89881 | -156.43073 | 47 ft | 22 kts | 214° |
| 2026-05-07 18:54 | 20.89751 | -156.43168 | 47 ft | 20 kts | 215° |
| 2026-05-07 18:54 | 20.89646 | -156.43249 | 47 ft | 20 kts | 216° |
| 2026-05-07 18:54 | 20.89547 | -156.43322 | 46 ft | 22 kts | 214° |
| 2026-05-07 18:55 | 20.89416 | -156.43419 | 46 ft | 24 kts | 216° |
| 2026-05-07 18:55 | 20.89273 | -156.43526 | 45 ft | 26 kts | 215° |
| 2026-05-07 18:55 | 20.89118 | -156.43642 | 45 ft | 26 kts | 214° |
| 2026-05-07 18:55 | 20.88997 | -156.43732 | 47 ft | 13 kts | 215° |
| 2026-05-07 18:56 | 20.88988 | -156.43740 | 45 ft | 2 kts | 234° |
| 2026-05-07 18:56 | 20.89012 | -156.43783 | 47 ft | 11 kts | 312° |
| 2026-05-07 18:56 | 20.89054 | -156.43839 | 45 ft | 6 kts | 304° |
| 2026-05-07 18:56 | 20.89061 | -156.43850 | 46 ft | 0 kts | 304° |